This is the latest recevied weather packets stored in our database for station/object KA1BMF-13. If no packets are shown the sender has not sent any weather packets the latest 10 day(s).
| Time | Temp. | Humidity | Pressure | Rain* | Wind** | Luminosity | Snow |
|---|---|---|---|---|---|---|---|
| 1788119117 | 25° C | 70% | 1017.8 hPa | 0 mm | - | 197 W/m² | - |
| 1788118520 | 25° C | 69% | 1017.9 hPa | 0 mm | - | 230 W/m² | - |
| 1788117918 | 25.56° C | 65% | 1018.1 hPa | 0 mm | - | 100 W/m² | - |
| 1788117318 | 26.11° C | 63% | 1018.3 hPa | 0 mm | - | 201 W/m² | - |
| 1788116718 | 26.11° C | 60% | 1018.5 hPa | 0 mm | - | 397 W/m² | - |
| 1788116118 | 26.11° C | 60% | 1018.6 hPa | 0 mm | - | 459 W/m² | - |
| 1788115518 | 26.67° C | 59% | 1018.7 hPa | 0 mm | - | 395 W/m² | - |
| 1788114919 | 26.67° C | 58% | 1018.6 hPa | 0 mm | - | 474 W/m² | - |
| 1788114319 | 26.67° C | 58% | 1018.8 hPa | 0 mm | - | 793 W/m² | - |
| 1788113719 | 26.11° C | 59% | 1018.9 hPa | 0 mm | - | 427 W/m² | - |
| 1788113119 | 26.11° C | 60% | 1018.9 hPa | 0 mm | - | 761 W/m² | - |
| 1788112519 | 26.11° C | 61% | 1019 hPa | 0 mm | - | 462 W/m² | - |
| 1788111917 | 26.11° C | 60% | 1019.1 hPa | 0 mm | - | 336 W/m² | - |
| 1788111320 | 26.11° C | 60% | 1019.2 hPa | 0 mm | - | 356 W/m² | - |
| 1788110719 | 26.11° C | 60% | 1019.3 hPa | 0 mm | - | 455 W/m² | - |
| 1788110120 | 26.11° C | 59% | 1019.3 hPa | 0 mm | - | 498 W/m² | - |
| 1788109517 | 26.67° C | 57% | 1019.4 hPa | 0 mm | - | 742 W/m² | - |
| 1788108917 | 26.67° C | 57% | 1019.5 hPa | 0 mm | - | 927 W/m² | - |
| 1788108317 | 26.67° C | 56% | 1019.5 hPa | 0 mm | - | 820 W/m² | - |
| 1788107720 | 26.11° C | 55% | 1019.6 hPa | 0 mm | - | 819 W/m² | - |
| 1788107118 | 25.56° C | 55% | 1019.8 hPa | 0 mm | - | 846 W/m² | - |
| 1788106518 | 25.56° C | 57% | 1019.9 hPa | 0 mm | - | 763 W/m² | - |
| 1788105918 | 25.56° C | 58% | 1020 hPa | 0 mm | - | 729 W/m² | - |
| 1788105318 | 25.56° C | 58% | 1020.1 hPa | 0 mm | - | 733 W/m² | - |
| 1788104719 | 25.56° C | 57% | 1020.2 hPa | 0 mm | - | 497 W/m² | - |
* Rain latest hour (hover to see other rain measurements)
** Current wind speed in m/s (hover to see current wind gust speed)